Time;durP1;ratioP1;P1;durP2;ratioP2;P2;SDS_P1;SDS_P2;PMS_P1;PMS_P2;Temp;Humidity;BMP_temperature;BMP_pressure;BME280_temperature;BME280_humidity;BME280_pressure;Samples;Min_cycle;Max_cycle;Signal;HPM_P1;HPM_P2
2023/07/19 00:00:12;;;;;;;4.88;2.08;;;19.30;97.40;;;19.77;92.47;100781.47;5205113;28;20041;-50
2023/07/19 00:02:47;;;;;;;3.53;1.90;;;19.30;97.50;;;19.74;92.59;100777.06;5207058;28;20049;-49
2023/07/19 00:05:19;;;;;;;2.95;1.60;;;19.30;97.80;;;19.69;92.98;100778.88;5223990;28;20044;-49
2023/07/19 00:07:57;;;;;;;2.13;1.60;;;19.20;98.00;;;19.62;93.62;100777.09;5212452;28;20154;-49
2023/07/19 00:10:29;;;;;;;3.00;1.60;;;19.20;98.30;;;19.57;94.50;100770.03;5220035;28;20053;-49
2023/07/19 00:13:02;;;;;;;4.00;1.70;;;19.10;98.70;;;19.50;95.17;100763.91;5231836;28;20053;-49
2023/07/19 00:15:34;;;;;;;3.60;1.67;;;19.10;99.10;;;19.47;95.44;100767.41;5223367;28;20055;-49
2023/07/19 00:18:09;;;;;;;2.33;1.60;;;19.00;99.30;;;19.47;95.20;100771.81;5223685;28;20076;-50
2023/07/19 00:20:42;;;;;;;2.42;1.70;;;19.00;99.50;;;19.46;95.29;100765.66;5213989;28;20503;-50
2023/07/19 00:23:16;;;;;;;3.17;1.80;;;18.90;99.70;;;19.44;94.68;100767.44;5233630;28;20528;-48
2023/07/19 00:25:49;;;;;;;;;;;19.00;99.70;;;19.43;94.55;100770.03;5207652;28;20077;-48
2023/07/19 00:28:21;;;;;;;3.17;1.77;;;18.90;99.70;;;19.40;94.28;100770.06;5208763;28;19921;-49
2023/07/19 00:31:01;;;;;;;2.88;1.77;;;18.90;99.70;;;19.36;93.97;100769.19;5215225;28;20289;-51
2023/07/19 00:33:34;;;;;;;3.80;1.75;;;18.90;99.70;;;19.32;94.57;100771.84;5214921;28;20051;-49
2023/07/19 00:36:07;;;;;;;4.60;1.90;;;18.90;99.90;;;19.28;95.08;100765.66;5223540;28;20095;-49
2023/07/19 00:38:42;;;;;;;3.75;1.90;;;18.80;99.90;;;19.23;95.28;100768.34;5206551;28;20056;-49
2023/07/19 00:41:15;;;;;;;3.35;1.77;;;18.80;99.90;;;19.18;95.86;100764.81;5209210;28;20046;-50
2023/07/19 00:43:48;;;;;;;3.67;2.00;;;18.70;99.90;;;19.14;95.95;100775.38;5237288;28;20084;-50
2023/07/19 00:46:21;;;;;;;2.58;1.80;;;18.70;99.90;;;19.07;96.48;100766.56;5216628;28;20050;-49
2023/07/19 00:48:54;;;;;;;2.30;1.58;;;18.60;99.90;;;19.04;96.79;100769.25;5229679;28;20084;-50
2023/07/19 00:51:27;;;;;;;2.10;1.60;;;18.60;99.90;;;19.03;97.22;100771.84;5214947;28;20066;-49
2023/07/19 00:54:05;;;;;;;3.15;1.88;;;18.60;99.90;;;19.02;97.06;100767.44;5230609;28;20045;-49
2023/07/19 00:56:38;;;;;;;2.72;1.88;;;18.60;99.90;;;19.00;96.79;100770.09;5206108;28;20064;-50
2023/07/19 00:59:13;;;;;;;2.90;1.73;;;18.60;99.90;;;19.00;96.58;100775.38;5219058;28;20445;-49
2023/07/19 01:01:45;;;;;;;2.95;1.63;;;18.50;99.90;;;18.97;96.65;100767.44;5219798;28;20407;-49
2023/07/19 01:04:18;;;;;;;3.80;2.03;;;18.50;99.90;;;18.92;96.58;100766.59;5217051;28;20057;-50
2023/07/19 01:06:50;;;;;;;2.13;1.60;;;18.50;99.90;;;18.87;96.72;100760.41;5236675;28;20537;-49
2023/07/19 01:09:26;;;;;;;2.67;1.65;;;18.50;99.90;;;18.83;96.52;100762.16;5214941;28;20063;-49
2023/07/19 01:12:02;;;;;;;3.20;1.80;;;18.40;99.90;;;18.81;96.75;100761.28;5222043;28;20578;-49
2023/07/19 01:14:35;;;;;;;2.42;1.73;;;18.40;99.90;;;18.78;96.65;100757.75;5214767;28;20061;-49
2023/07/19 01:17:07;;;;;;;3.30;2.00;;;18.30;99.90;;;18.75;96.62;100755.13;5231137;28;20403;-49
2023/07/19 01:19:40;;;;;;;5.20;2.10;;;18.30;99.90;;;18.73;96.63;100754.25;5206765;28;20499;-50
2023/07/19 01:22:15;;;;;;;3.90;1.95;;;18.30;99.90;;;18.71;96.80;100756.88;5223361;28;20056;-48
2023/07/19 01:24:49;;;;;;;3.35;2.03;;;18.30;99.90;;;18.67;97.42;100758.63;5212636;28;20057;-49
2023/07/19 01:27:21;;;;;;;3.45;1.90;;;18.20;99.90;;;18.65;97.43;100760.38;5224908;28;20041;-49
2023/07/19 01:29:54;;;;;;;2.92;1.77;;;18.20;99.90;;;18.63;97.35;100762.13;5215579;28;20033;-49
2023/07/19 01:32:26;;;;;;;3.90;2.15;;;18.20;99.90;;;18.62;97.39;100765.63;5221987;28;20044;-49
2023/07/19 01:34:58;;;;;;;2.72;1.75;;;18.20;99.90;;;18.59;97.43;100752.44;5210701;28;20515;-49
2023/07/19 01:37:31;;;;;;;5.53;2.38;;;18.10;99.90;;;18.54;98.13;100756.84;5225632;28;20049;-49
2023/07/19 01:40:07;;;;;;;4.32;2.10;;;18.10;99.90;;;18.53;98.48;100747.16;5221718;28;20124;-49
2023/07/19 01:42:40;;;;;;;4.50;2.20;;;18.10;99.90;;;18.49;98.17;100742.75;5214844;28;20042;-49
2023/07/19 01:45:12;;;;;;;4.28;2.20;;;18.10;99.90;;;18.47;97.96;100744.50;5222985;28;20049;-49
2023/07/19 01:47:45;;;;;;;3.80;2.28;;;18.00;99.90;;;18.44;98.13;100736.56;5213742;28;20048;-49
2023/07/19 01:50:21;;;;;;;4.68;2.20;;;18.00;99.90;;;18.41;98.28;100736.56;5216542;28;20091;-49
2023/07/19 01:52:54;;;;;;;4.82;2.50;;;18.00;99.90;;;18.36;98.07;100728.63;5226214;28;20041;-49
2023/07/19 01:55:27;;;;;;;5.07;2.20;;;18.00;99.90;;;18.35;98.01;100726.88;5232580;28;20045;-50
2023/07/19 01:58:04;;;;;;;4.40;2.03;;;18.00;99.90;;;18.35;98.36;100728.66;5218809;28;20053;-49
2023/07/19 02:00:37;;;;;;;2.70;1.80;;;18.00;99.90;;;18.33;98.64;100722.50;5225339;28;20041;-49
2023/07/19 02:03:10;;;;;;;4.50;2.35;;;17.90;99.90;;;18.30;99.43;100719.84;5213989;28;20498;-49
2023/07/19 02:05:42;;;;;;;4.75;2.20;;;17.90;99.90;;;18.26;99.93;100718.97;5213300;28;20374;-50
2023/07/19 02:08:14;;;;;;;4.25;2.15;;;17.80;99.90;;;18.25;100.00;100711.03;5222647;28;20059;-49
2023/07/19 02:10:48;;;;;;;3.35;2.13;;;17.90;99.90;;;18.25;100.00;100713.66;5204201;28;20424;-48
2023/07/19 02:13:21;;;;;;;4.03;2.20;;;17.80;99.90;;;18.21;99.83;100707.50;5223506;28;20057;-49
2023/07/19 02:15:53;;;;;;;4.07;1.90;;;17.80;99.90;;;18.17;100.00;100701.34;5221261;28;20049;-48
2023/07/19 02:18:26;;;;;;;3.83;1.73;;;17.80;99.90;;;18.17;100.00;100711.00;5213430;28;20040;-50
2023/07/19 02:20:59;;;;;;;4.70;2.17;;;17.80;99.90;;;18.15;100.00;100703.09;5210344;28;20045;-49
2023/07/19 02:23:33;;;;;;;3.10;1.95;;;17.70;99.90;;;18.12;100.00;100705.72;5232612;28;20099;-48
2023/07/19 02:26:07;;;;;;;;;;;17.70;99.90;;;18.08;100.00;100701.31;5221300;28;20041;-50
2023/07/19 02:28:39;;;;;;;4.43;1.83;;;17.70;99.90;;;18.07;100.00;100703.97;5214771;28;19928;-48
2023/07/19 02:31:12;;;;;;;5.13;2.00;;;17.70;99.90;;;18.03;100.00;100702.19;5233783;28;20163;-48
2023/07/19 02:33:44;;;;;;;3.00;2.03;;;17.60;99.90;;;18.00;100.00;100700.44;5233772;28;20060;-49
2023/07/19 02:36:17;;;;;;;2.97;2.00;;;17.60;99.90;;;18.00;100.00;100710.97;5213326;28;20155;-49
2023/07/19 02:38:49;;;;;;;3.53;2.05;;;17.60;99.90;;;17.98;100.00;100703.91;5221178;28;20494;-49
2023/07/19 02:41:24;;;;;;;3.17;2.00;;;17.60;99.90;;;17.92;100.00;100696.84;5220934;28;20044;-49
2023/07/19 02:43:56;;;;;;;4.43;2.45;;;17.50;99.90;;;17.87;100.00;100701.25;5213313;28;20041;-50
2023/07/19 02:46:32;;;;;;;3.70;2.08;;;17.50;99.90;;;17.84;100.00;100701.25;5213182;28;20075;-49
2023/07/19 02:49:04;;;;;;;2.90;1.90;;;17.50;99.90;;;17.82;100.00;100697.72;5209818;28;20569;-49
2023/07/19 02:51:37;;;;;;;3.83;2.20;;;17.40;99.90;;;17.76;100.00;100695.06;5224568;28;20570;-50
2023/07/19 02:54:12;;;;;;;3.53;2.05;;;17.40;99.90;;;17.71;100.00;100694.13;5217113;28;20091;-50
2023/07/19 02:56:46;;;;;;;4.55;2.25;;;17.30;99.90;;;17.69;100.00;100695.88;5233348;28;20040;-49
2023/07/19 02:59:18;;;;;;;3.55;1.92;;;17.30;99.90;;;17.67;100.00;100702.88;5230132;28;20045;-49
2023/07/19 03:01:51;;;;;;;4.20;1.80;;;17.30;99.90;;;17.64;100.00;100693.22;5211637;28;20207;-49
2023/07/19 03:04:26;;;;;;;3.50;2.17;;;17.30;99.90;;;17.62;100.00;100701.13;5210278;28;20423;-50
2023/07/19 03:06:58;;;;;;;5.95;2.10;;;17.30;99.90;;;17.60;100.00;100694.06;5225395;28;20060;-48
2023/07/19 03:09:31;;;;;;;7.50;2.88;;;17.20;99.90;;;17.55;100.00;100699.34;5225644;28;20049;-50
2023/07/19 03:12:06;;;;;;;4.68;2.20;;;17.20;99.90;;;17.52;100.00;100704.56;5228037;28;20060;-48
2023/07/19 03:14:39;;;;;;;4.70;2.35;;;17.20;99.90;;;17.48;100.00;100718.63;5209060;28;20072;-49
2023/07/19 03:17:11;;;;;;;4.63;2.50;;;17.10;99.90;;;17.47;100.00;100705.41;5240876;28;20578;-48
2023/07/19 03:19:47;;;;;;;4.40;2.33;;;17.10;99.90;;;17.42;100.00;100701.91;5217152;28;20079;-49
2023/07/19 03:22:20;;;;;;;4.45;2.20;;;17.10;99.90;;;17.38;100.00;100705.38;5217150;28;20052;-49
2023/07/19 03:24:53;;;;;;;4.30;2.20;;;17.10;99.90;;;17.39;100.00;100715.94;5208411;28;20495;-48
2023/07/19 03:27:26;;;;;;;3.47;2.10;;;17.10;99.90;;;17.43;100.00;100715.09;5211671;28;20042;-50
2023/07/19 03:29:59;;;;;;;3.63;2.17;;;17.10;99.90;;;17.44;100.00;100716.84;5222941;28;20038;-50
2023/07/19 03:32:34;;;;;;;3.58;2.22;;;17.10;99.90;;;17.44;100.00;100710.69;5218770;28;20410;-49
2023/07/19 03:35:08;;;;;;;4.38;2.00;;;17.10;99.90;;;17.40;100.00;100707.13;5240304;28;20522;-48
2023/07/19 03:37:44;;;;;;;5.47;2.15;;;17.10;99.90;;;17.37;100.00;100715.03;5216496;28;20476;-50
2023/07/19 03:40:19;;;;;;;4.63;2.58;;;17.10;99.90;;;17.37;100.00;100720.31;5215883;28;20904;-48
2023/07/19 03:42:54;;;;;;;3.95;2.08;;;17.10;99.90;;;17.40;100.00;100720.31;5223531;28;20052;-50
2023/07/19 03:45:28;;;;;;;4.15;2.28;;;17.00;99.90;;;17.38;100.00;100716.81;5234214;28;20063;-49
2023/07/19 03:48:00;;;;;;;4.00;2.28;;;17.00;99.90;;;17.38;100.00;100705.38;5213950;28;20041;-48
2023/07/19 03:50:37;;;;;;;3.55;2.25;;;17.00;99.90;;;17.37;100.00;100720.31;5227994;28;20044;-49
2023/07/19 03:53:09;;;;;;;4.10;2.10;;;17.00;99.90;;;17.35;100.00;100722.94;5236901;28;20051;-48
2023/07/19 03:55:42;;;;;;;4.07;2.15;;;17.00;99.90;;;17.35;100.00;100722.06;5236113;28;20559;-48
2023/07/19 03:58:16;;;;;;;4.07;2.20;;;17.00;99.90;;;17.33;100.00;100714.13;5223853;28;20040;-49
2023/07/19 04:00:48;;;;;;;4.60;2.20;;;17.00;99.90;;;17.32;100.00;100712.38;5223613;28;20528;-48
2023/07/19 04:03:21;;;;;;;4.05;2.28;;;16.90;99.90;;;17.30;100.00;100703.59;5207957;28;20045;-49
2023/07/19 04:05:54;;;;;;;5.13;2.30;;;16.90;99.90;;;17.32;100.00;100712.38;5207821;28;20679;-49
2023/07/19 04:08:27;;;;;;;2.72;2.08;;;17.00;99.90;;;17.31;100.00;100721.16;5212362;28;20128;-49
2023/07/19 04:10:59;;;;;;;4.07;2.10;;;17.00;99.90;;;17.28;100.00;100710.63;5229380;28;20041;-48
2023/07/19 04:13:33;;;;;;;4.53;2.13;;;17.00;99.90;;;17.25;100.00;100714.97;5224180;28;20055;-49
2023/07/19 04:16:05;;;;;;;5.53;2.72;;;16.90;99.90;;;17.19;100.00;100704.38;5207122;28;20103;-50
2023/07/19 04:18:41;;;;;;;5.10;2.53;;;16.90;99.90;;;17.18;100.00;100718.44;5215566;28;20055;-49
2023/07/19 04:21:14;;;;;;;4.00;2.40;;;16.90;99.90;;;17.21;100.00;100719.31;5203758;28;20034;-50
2023/07/19 04:23:47;;;;;;;5.45;2.70;;;16.90;99.90;;;17.25;100.00;100709.69;5231209;28;20049;-49
2023/07/19 04:26:19;;;;;;;5.60;2.47;;;16.90;99.90;;;17.27;100.00;100710.56;5219527;28;20491;-48
2023/07/19 04:28:53;;;;;;;6.43;2.22;;;17.00;99.90;;;17.34;100.00;100720.28;5219986;28;20045;-50
2023/07/19 04:31:25;;;;;;;6.13;2.40;;;17.00;99.90;;;17.41;100.00;100721.19;5224110;28;20041;-49
2023/07/19 04:33:58;;;;;;;4.05;2.13;;;17.10;99.90;;;17.48;100.00;100705.47;5206268;28;20056;-48
2023/07/19 04:36:31;;;;;;;4.45;2.22;;;17.10;99.90;;;17.54;100.00;100699.31;5233193;28;20036;-48
2023/07/19 04:39:07;;;;;;;3.78;2.42;;;17.20;99.90;;;17.58;100.00;100715.16;5213526;28;20054;-48
2023/07/19 04:41:39;;;;;;;3.85;2.10;;;17.30;99.90;;;17.63;100.00;100710.78;5234221;28;20038;-49
2023/07/19 04:44:13;;;;;;;4.57;2.42;;;17.30;99.90;;;17.67;100.00;100710.78;5223152;28;20676;-48
2023/07/19 04:46:46;;;;;;;4.30;2.20;;;17.30;99.90;;;17.69;100.00;100711.69;5207356;28;20091;-49
2023/07/19 04:49:20;;;;;;;3.67;2.13;;;17.30;99.90;;;17.73;100.00;100714.38;5230864;28;20041;-50
2023/07/19 04:51:52;;;;;;;3.58;1.80;;;17.40;99.90;;;17.79;100.00;100713.50;5222937;28;20056;-50
2023/07/19 04:54:25;;;;;;;3.50;2.00;;;17.40;99.90;;;17.83;100.00;100718.81;5211304;28;20049;-49
2023/07/19 04:56:58;;;;;;;3.78;2.05;;;17.50;99.90;;;17.92;100.00;100715.31;5227433;28;20080;-48
2023/07/19 04:59:32;;;;;;;6.63;2.33;;;17.50;99.90;;;18.02;100.00;100711.84;5219316;28;20055;-49
2023/07/19 05:02:05;;;;;;;3.55;2.10;;;17.60;99.90;;;18.08;100.00;100722.41;5220327;28;20064;-48
2023/07/19 05:04:37;;;;;;;3.45;2.03;;;17.70;99.90;;;18.11;100.00;100719.78;5223096;28;20074;-49
2023/07/19 05:07:10;;;;;;;6.03;2.63;;;17.80;99.90;;;18.20;100.00;100726.88;5222346;28;20060;-51
2023/07/19 05:09:43;;;;;;;3.83;2.05;;;17.80;99.90;;;18.33;100.00;100727.78;5208168;28;20511;-50
2023/07/19 05:12:16;;;;;;;5.30;2.38;;;17.90;99.90;;;18.48;100.00;100733.06;5229507;28;20044;-49
2023/07/19 05:14:49;;;;;;;6.07;2.50;;;18.00;99.90;;;18.55;100.00;100737.47;5214408;28;20518;-50
2023/07/19 05:17:22;;;;;;;4.63;2.25;;;18.10;99.90;;;18.58;100.00;100734.84;5210526;28;20051;-49
2023/07/19 05:19:55;;;;;;;5.15;2.75;;;18.20;99.90;;;18.61;100.00;100740.13;5218574;28;20575;-51
2023/07/19 05:22:30;;;;;;;3.67;2.22;;;18.20;99.90;;;18.66;100.00;100738.41;5222166;28;20053;-50
2023/07/19 05:25:03;;;;;;;5.32;2.10;;;18.20;99.90;;;18.79;100.00;100734.00;5206159;28;20049;-50
2023/07/19 05:27:35;;;;;;;4.97;2.60;;;18.30;99.90;;;18.90;100.00;100737.50;5214202;28;20049;-49
2023/07/19 05:30:11;;;;;;;5.80;2.47;;;18.40;99.90;;;19.00;100.00;100745.44;5213732;28;20053;-50
2023/07/19 05:32:43;;;;;;;3.65;2.28;;;18.50;99.90;;;19.07;99.96;100747.22;5207494;28;20052;-49
2023/07/19 05:35:16;;;;;;;5.20;2.60;;;18.60;99.90;;;19.08;99.27;100749.84;5234589;28;20526;-49
2023/07/19 05:37:48;;;;;;;4.30;2.20;;;18.70;99.90;;;19.11;99.20;100752.50;5224909;28;20045;-49
2023/07/19 05:40:21;;;;;;;5.00;2.45;;;18.70;99.90;;;19.24;98.79;100754.25;5214521;28;20067;-50
2023/07/19 05:42:53;;;;;;;5.28;2.22;;;18.70;99.90;;;19.36;98.12;100763.00;5205993;28;20499;-50
2023/07/19 05:45:27;;;;;;;4.88;2.47;;;18.90;99.90;;;19.42;97.63;100765.66;5234094;28;20045;-49
2023/07/19 05:47:59;;;;;;;6.68;2.30;;;18.90;99.90;;;19.43;97.55;100760.38;5234589;28;20067;-50
2023/07/19 05:50:32;;;;;;;4.70;2.60;;;19.00;99.90;;;19.41;96.39;100758.59;5226554;28;20087;-49
2023/07/19 05:53:04;;;;;;;6.15;2.55;;;19.00;99.90;;;19.32;95.91;100763.91;5226999;28;20049;-49
2023/07/19 05:55:37;;;;;;;4.10;2.22;;;18.90;99.90;;;19.31;96.27;100762.16;5216373;28;20427;-49
2023/07/19 05:58:10;;;;;;;5.05;2.30;;;18.90;99.90;;;19.27;96.27;100763.03;5217612;28;20060;-50
2023/07/19 06:00:43;;;;;;;5.90;2.30;;;18.90;99.90;;;19.23;96.32;100772.72;5218027;28;20466;-48
2023/07/19 06:03:17;;;;;;;5.82;2.40;;;18.90;99.90;;;19.20;96.49;100768.31;5225941;28;20072;-50
2023/07/19 06:05:49;;;;;;;4.18;2.33;;;18.80;99.90;;;19.16;96.42;100768.31;5234303;28;20045;-48
2023/07/19 06:08:21;;;;;;;5.32;2.35;;;18.80;99.90;;;19.15;96.38;100774.50;5213489;28;20052;-48
2023/07/19 06:10:54;;;;;;;4.10;2.08;;;18.80;99.90;;;19.17;96.67;100764.78;5221717;28;20110;-48
2023/07/19 06:13:26;;;;;;;6.65;2.50;;;18.80;99.90;;;19.19;96.99;100765.69;5209467;28;20423;-48
2023/07/19 06:16:00;;;;;;;4.45;2.50;;;18.80;99.90;;;19.17;97.33;100755.13;5225399;28;20048;-48
2023/07/19 06:18:36;;;;;;;5.25;2.00;;;18.80;99.90;;;19.16;97.74;100761.28;5221696;28;20057;-47
2023/07/19 06:21:08;;;;;;;4.20;2.03;;;18.80;99.90;;;19.18;98.12;100772.75;5212888;28;20049;-48
2023/07/19 06:23:42;;;;;;;4.47;2.47;;;18.80;99.90;;;19.21;98.48;100770.09;5213466;28;20052;-48
2023/07/19 06:26:14;;;;;;;4.60;2.30;;;18.90;99.90;;;19.25;98.79;100761.28;5221246;28;20040;-48
2023/07/19 06:28:50;;;;;;;6.25;2.70;;;18.80;99.90;;;19.32;99.14;100756.00;5225555;28;20051;-48
2023/07/19 06:31:24;;;;;;;4.97;2.78;;;18.90;99.90;;;19.27;98.87;100753.34;5220203;28;20406;-48
2023/07/19 06:33:56;;;;;;;4.55;2.38;;;18.90;99.90;;;19.30;98.56;100747.16;5220868;28;20045;-48
2023/07/19 06:36:29;;;;;;;4.40;2.78;;;19.00;99.90;;;19.37;98.22;100751.59;5220902;28;20471;-49
2023/07/19 06:39:01;;;;;;;7.68;2.92;;;19.00;99.90;;;19.38;97.36;100755.97;5212861;28;20046;-49
2023/07/19 06:41:33;;;;;;;5.60;2.70;;;19.00;99.90;;;19.40;97.71;100756.84;5212886;28;20052;-48
2023/07/19 06:44:06;;;;;;;6.78;2.72;;;19.00;99.90;;;19.43;97.63;100759.47;5212558;28;20060;-48
2023/07/19 06:46:43;;;;;;;4.20;2.38;;;19.00;99.90;;;19.50;97.49;100761.25;5221457;28;20458;-49
2023/07/19 06:49:15;;;;;;;8.35;2.58;;;19.10;99.90;;;19.50;96.72;100753.31;5219115;28;20581;-48
2023/07/19 06:51:48;;;;;;;4.22;2.20;;;19.10;99.90;;;19.49;96.07;100748.88;5226493;28;20033;-48
2023/07/19 06:54:20;;;;;;;5.28;2.63;;;19.10;99.90;;;19.47;96.13;100745.38;5217575;28;20048;-48
2023/07/19 06:56:56;;;;;;;4.65;2.20;;;19.10;99.90;;;19.50;96.18;100745.38;5225278;28;20053;-48
2023/07/19 06:59:29;;;;;;;5.00;2.45;;;19.20;99.90;;;19.55;95.92;100748.88;5221817;28;20139;-48
2023/07/19 07:02:03;;;;;;;4.20;2.25;;;19.20;99.90;;;19.56;95.43;100742.72;5216474;28;20052;-49
2023/07/19 07:04:35;;;;;;;4.10;2.15;;;19.20;99.90;;;19.57;95.18;100747.13;5233710;28;20052;-48
2023/07/19 07:07:07;;;;;;;4.78;2.22;;;19.20;99.90;;;19.62;95.11;100749.78;5216196;28;20055;-47
2023/07/19 07:09:40;;;;;;;5.18;2.28;;;19.30;99.90;;;19.67;94.76;100748.88;5211957;28;20041;-49
2023/07/19 07:12:12;;;;;;;4.22;2.30;;;19.30;99.90;;;19.72;94.32;100752.41;5237713;28;20514;-49
2023/07/19 07:14:48;;;;;;;4.07;2.00;;;19.30;99.90;;;19.75;94.01;100756.78;5216606;28;20453;-49
2023/07/19 07:17:22;;;;;;;6.72;3.00;;;19.40;99.90;;;19.75;93.31;100749.72;5217336;28;20060;-49
2023/07/19 07:19:54;;;;;;;4.57;2.35;;;19.40;99.90;;;19.74;93.00;100747.97;5217154;28;20070;-49
2023/07/19 07:22:27;;;;;;;4.85;2.30;;;19.40;99.90;;;19.77;92.92;100753.25;5215280;28;20106;-50
2023/07/19 07:25:00;;;;;;;3.88;2.33;;;19.40;99.90;;;19.86;92.64;100756.75;5218518;28;20052;-49
2023/07/19 07:27:32;;;;;;;3.22;2.10;;;19.50;99.90;;;19.94;92.45;100762.88;5228696;28;20051;-50
2023/07/19 07:30:10;;;;;;;3.78;2.03;;;19.50;99.90;;;20.02;92.36;100771.69;5220669;28;20041;-49
2023/07/19 07:32:49;;;;;;;4.75;2.30;;;19.60;99.90;;;20.08;93.00;100776.94;5209089;28;20602;-49
2023/07/19 07:35:21;;;;;;;4.45;2.15;;;19.70;99.90;;;20.31;92.40;100780.34;5205656;28;20128;-48
2023/07/19 07:37:53;;;;;;;5.90;2.03;;;19.90;99.90;;;20.51;92.07;100764.38;5235190;28;20406;-47
2023/07/19 07:40:26;;;;;;;5.40;2.30;;;20.10;99.90;;;20.65;91.49;100769.59;5224503;28;20064;-47
2023/07/19 07:43:01;;;;;;;4.55;2.35;;;20.30;99.90;;;20.63;92.04;100771.38;5224326;28;20044;-48
2023/07/19 07:45:35;;;;;;;4.85;2.13;;;20.40;99.90;;;20.72;92.75;100760.72;5220879;28;20056;-48
2023/07/19 07:48:08;;;;;;;4.72;2.22;;;20.50;99.90;;;20.90;92.93;100766.78;5220611;28;20111;-48
2023/07/19 07:50:41;;;;;;;8.18;2.28;;;20.60;99.90;;;21.05;92.85;100769.28;5219973;28;20045;-48
2023/07/19 07:53:13;;;;;;;6.43;2.30;;;20.80;99.90;;;21.22;92.85;100759.41;5229543;28;20419;-48
2023/07/19 07:55:46;;;;;;;5.50;2.60;;;20.90;99.90;;;21.24;92.54;100760.28;5224499;28;20268;-48
2023/07/19 07:58:18;;;;;;;5.82;2.47;;;21.00;99.90;;;21.12;93.21;100761.25;5207485;28;20053;-49
2023/07/19 08:00:51;;;;;;;6.25;2.25;;;20.90;99.90;;;21.19;94.03;100755.91;5223724;28;20049;-48
2023/07/19 08:03:25;;;;;;;5.32;2.53;;;20.90;99.90;;;21.27;94.46;100760.25;5221626;28;20414;-48
2023/07/19 08:05:57;;;;;;;4.85;2.65;;;21.00;99.90;;;21.36;94.65;100760.19;5228687;28;20053;-48
2023/07/19 08:08:29;;;;;;;5.15;2.17;;;21.00;99.90;;;21.47;94.57;100756.56;5235749;28;20050;-48
2023/07/19 08:11:05;;;;;;;5.32;2.28;;;21.10;99.90;;;21.65;94.39;100748.41;5234565;28;20524;-49
2023/07/19 08:13:38;;;;;;;4.47;2.20;;;21.20;99.90;;;21.74;94.09;100753.59;5215323;28;20102;-49
2023/07/19 08:16:10;;;;;;;3.72;2.30;;;21.30;99.90;;;21.74;94.65;100745.63;5206052;28;20690;-48
2023/07/19 08:18:44;;;;;;;4.07;2.03;;;21.30;99.90;;;21.72;95.41;100747.44;5215137;28;20045;-49
2023/07/19 08:21:16;;;;;;;4.30;2.40;;;21.30;99.90;;;21.76;96.26;100749.16;5221689;28;20049;-49
2023/07/19 08:23:53;;;;;;;7.88;2.60;;;21.30;99.90;;;21.77;96.32;100745.59;5220032;28;20045;-50
2023/07/19 08:26:25;;;;;;;5.05;2.40;;;21.20;99.90;;;21.67;96.12;100738.66;5237579;28;20099;-49
2023/07/19 08:28:58;;;;;;;4.10;2.17;;;21.20;99.90;;;21.81;96.63;100743.78;5216759;28;20122;-48
2023/07/19 08:31:30;;;;;;;4.40;2.30;;;21.20;99.90;;;22.16;96.48;100753.97;5238148;28;20055;-48
2023/07/19 08:34:04;;;;;;;5.25;2.42;;;21.30;99.90;;;22.48;95.33;100761.50;5216087;28;20608;-49
2023/07/19 08:36:36;;;;;;;4.50;2.42;;;21.50;99.90;;;22.56;94.23;100748.09;5230978;28;20037;-48
2023/07/19 08:39:09;;;;;;;5.35;2.40;;;21.60;99.90;;;22.48;94.00;100749.09;5214925;28;20057;-49
2023/07/19 08:41:41;;;;;;;3.75;1.83;;;21.60;99.90;;;22.38;93.76;100755.47;5206398;28;20541;-48
2023/07/19 08:44:14;;;;;;;4.85;1.90;;;21.70;99.90;;;22.43;93.18;100758.94;5214400;28;20052;-49
2023/07/19 08:46:49;;;;;;;4.50;2.17;;;21.70;99.90;;;22.67;92.22;100754.13;5221795;28;20052;-48
2023/07/19 08:49:24;;;;;;;4.60;2.28;;;21.80;99.90;;;22.84;89.38;100746.78;5210692;28;20570;-48
2023/07/19 08:51:57;;;;;;;5.32;2.15;;;22.00;99.90;;;22.87;87.34;100751.19;5227268;28;20135;-48
2023/07/19 08:54:29;;;;;;;5.07;2.40;;;22.10;99.90;;;23.00;85.49;100750.94;5227452;28;20056;-48
2023/07/19 08:57:04;;;;;;;3.55;1.92;;;22.20;99.70;;;23.92;83.25;100743.06;5214658;28;20045;-49
2023/07/19 08:59:37;;;;;;;5.40;2.00;;;22.60;99.60;;;24.97;78.53;100739.75;5211174;28;20084;-49
2023/07/19 09:02:09;;;;;;;4.47;2.20;;;23.30;98.30;;;25.66;75.42;100734.34;5226510;28;20041;-48
2023/07/19 09:05:07;;;;;;;3.90;1.92;;;23.80;97.30;;;25.82;73.28;100745.53;5222505;28;20044;-49
2023/07/19 09:07:41;;;;;;;8.60;2.58;;;24.20;96.00;;;25.56;72.47;100734.66;5218766;28;20052;-49
2023/07/19 09:10:13;;;;;;;4.97;2.10;;;24.20;95.10;;;25.65;73.01;100739.75;5226220;28;20392;-48
2023/07/19 09:12:46;;;;;;;3.03;1.80;;;24.20;95.10;;;26.88;69.16;100729.75;5217966;28;20448;-49
2023/07/19 09:15:19;;;;;;;5.25;2.03;;;24.80;94.20;;;27.59;66.24;100739.78;5219273;28;20707;-49
2023/07/19 09:17:51;;;;;;;4.13;1.90;;;25.40;92.90;;;27.73;65.64;100741.97;5221073;28;20047;-49
2023/07/19 09:20:28;;;;;;;4.03;1.77;;;25.70;92.20;;;27.93;64.00;100735.00;5210298;28;20565;-51
2023/07/19 09:23:06;;;;;;;4.75;2.20;;;25.90;91.20;;;28.14;64.05;100739.53;5214992;28;20103;-50
2023/07/19 09:25:52;;;;;;;4.90;2.10;;;26.10;90.90;;;28.54;62.30;100735.31;5233458;28;20069;-50
2023/07/19 09:28:25;;;;;;;4.43;2.00;;;26.40;90.00;;;28.30;61.69;100740.69;5218887;28;20099;-49
2023/07/19 09:31:02;;;;;;;2.90;1.58;;;26.40;88.10;;;27.62;63.09;100738.78;5218739;28;20045;-49
2023/07/19 09:33:34;;;;;;;3.45;1.70;;;26.20;87.70;;;27.00;64.81;100740.06;5209654;28;20530;-49
2023/07/19 09:36:08;;;;;;;4.40;2.08;;;25.80;88.20;;;26.51;66.47;100740.78;5216776;28;20045;-49
2023/07/19 09:38:40;;;;;;;3.80;1.70;;;25.50;89.10;;;26.09;67.13;100738.50;5228132;28;20075;-48
2023/07/19 09:41:16;;;;;;;3.33;1.77;;;25.20;89.30;;;25.80;68.40;100733.13;5220495;28;20064;-49
2023/07/19 09:43:49;;;;;;;4.47;1.70;;;24.90;90.10;;;25.56;68.40;100730.22;5213419;28;20507;-49
2023/07/19 09:46:22;;;;;;;2.63;1.70;;;24.70;90.00;;;25.35;67.90;100738.78;5213565;28;20103;-48
2023/07/19 09:48:54;;;;;;;3.78;1.55;;;24.50;89.40;;;25.24;68.41;100727.56;5213757;28;20040;-49
2023/07/19 09:51:28;;;;;;;3.70;1.58;;;24.40;89.70;;;25.19;68.40;100726.78;5211509;28;20041;-48
2023/07/19 09:54:01;;;;;;;;;;;24.30;89.60;;;25.20;67.76;100732.09;5232480;28;20045;-49
2023/07/19 09:56:33;;;;;;;2.83;1.20;;;24.30;89.10;;;25.19;67.73;100726.78;5202815;28;20295;-48
2023/07/19 09:59:11;;;;;;;3.78;1.40;;;24.30;89.10;;;25.11;68.04;100733.22;5217902;28;20057;-48
2023/07/19 10:01:44;;;;;;;4.32;1.73;;;24.20;89.20;;;25.01;69.18;100733.44;5237306;28;20387;-48
2023/07/19 10:04:24;;;;;;;5.07;1.70;;;24.20;90.00;;;24.87;70.31;100725.78;5213434;28;20041;-48
2023/07/19 10:07:11;;;;;;;3.35;1.60;;;24.10;90.30;;;24.79;70.24;100738.44;5215008;28;20045;-50
2023/07/19 10:09:45;;;;;;;3.30;1.75;;;24.00;90.30;;;24.92;70.48;100731.91;5221515;28;20048;-48
2023/07/19 10:12:25;;;;;;;5.07;1.70;;;24.10;90.50;;;25.13;70.58;100720.69;5213267;28;20078;-52
2023/07/19 10:15:02;;;;;;;4.60;1.80;;;24.20;90.70;;;25.25;69.33;100718.63;5214962;28;20091;-50
2023/07/19 10:17:41;;;;;;;2.42;1.33;;;24.30;90.20;;;25.32;68.85;100736.22;5221479;28;20059;-49
2023/07/19 10:20:15;;;;;;;3.42;1.42;;;24.40;90.00;;;25.44;68.75;100727.88;5214073;28;20060;-49
2023/07/19 10:22:53;;;;;;;4.10;1.50;;;24.50;90.00;;;25.56;68.90;100715.97;5237768;28;20071;-49
2023/07/19 10:25:28;;;;;;;4.10;1.60;;;24.60;90.10;;;25.62;68.69;100714.00;5205117;28;20056;-49
2023/07/19 10:28:04;;;;;;;4.20;1.60;;;24.70;89.80;;;25.64;68.40;100719.31;5221484;28;20133;-48
2023/07/19 10:30:57;;;;;;;4.85;1.70;;;24.70;89.50;;;25.80;68.22;100717.97;5220828;28;20049;-50
2023/07/19 10:33:34;;;;;;;2.75;1.10;;;24.90;89.30;;;26.08;67.80;100715.38;5220928;28;20041;-50
2023/07/19 10:36:08;;;;;;;3.65;1.98;;;25.10;89.10;;;26.33;67.47;100718.13;5221097;28;20053;-48